createdAt,value
2018-12-03T00:01:50.995Z,11.60
2018-12-03T00:04:19.101Z,11.60
2018-12-03T00:06:46.776Z,11.60
2018-12-03T00:09:14.221Z,11.60
2018-12-03T00:11:41.668Z,11.50
2018-12-03T00:14:09.096Z,11.60
2018-12-03T00:16:36.545Z,11.70
2018-12-03T00:19:04.356Z,11.70
2018-12-03T00:21:31.793Z,11.60
2018-12-03T00:23:59.241Z,11.70
2018-12-03T00:26:26.687Z,11.70
2018-12-03T00:28:54.100Z,11.60
2018-12-03T00:31:21.576Z,11.70
2018-12-03T00:33:48.999Z,11.70
2018-12-03T00:36:16.453Z,11.70
2018-12-03T00:38:43.879Z,11.70
2018-12-03T00:41:12.340Z,11.60
2018-12-03T00:43:39.765Z,11.60
2018-12-03T00:46:07.298Z,11.60
2018-12-03T00:48:34.776Z,11.60
2018-12-03T00:51:02.216Z,11.60
2018-12-03T00:53:29.681Z,11.70
2018-12-03T00:55:57.127Z,11.60
2018-12-03T00:58:24.572Z,11.70
2018-12-03T01:00:52.002Z,11.70
2018-12-03T01:03:19.509Z,11.70
2018-12-03T01:05:47.004Z,11.60
2018-12-03T01:08:14.482Z,11.60
2018-12-03T01:10:41.949Z,11.60
2018-12-03T01:13:09.418Z,11.60
2018-12-03T01:15:36.917Z,11.60
2018-12-03T01:18:04.716Z,11.60
2018-12-03T01:20:32.140Z,11.60
2018-12-03T01:22:59.595Z,11.60
2018-12-03T01:25:27.035Z,11.60
2018-12-03T01:27:54.485Z,11.60
2018-12-03T01:30:21.930Z,11.60
2018-12-03T01:32:49.389Z,11.50
2018-12-03T01:35:16.833Z,11.50
2018-12-03T01:37:44.288Z,11.60
2018-12-03T01:40:12.141Z,11.60
2018-12-03T01:42:39.749Z,11.60
2018-12-03T01:45:08.820Z,11.60
2018-12-03T01:47:36.273Z,11.60
2018-12-03T01:50:05.733Z,11.60
2018-12-03T01:52:33.197Z,11.60
2018-12-03T01:55:00.645Z,11.70
2018-12-03T01:57:28.105Z,11.70
2018-12-03T01:59:55.528Z,11.70
2018-12-03T02:02:22.969Z,11.80
2018-12-03T02:04:50.391Z,11.70
2018-12-03T02:07:17.848Z,11.80
2018-12-03T02:09:45.291Z,11.70
2018-12-03T02:12:12.740Z,11.80
2018-12-03T02:14:40.177Z,11.90
2018-12-03T02:17:07.617Z,11.80
2018-12-03T02:19:35.088Z,11.80
2018-12-03T02:22:02.521Z,11.80
2018-12-03T02:24:29.977Z,11.90
2018-12-03T02:26:57.425Z,11.90
2018-12-03T02:29:24.874Z,12.00
2018-12-03T02:31:52.368Z,12.00
2018-12-03T02:34:19.795Z,12.00
2018-12-03T02:36:47.212Z,12.00
2018-12-03T02:39:14.655Z,11.90
2018-12-03T02:41:42.079Z,12.00
2018-12-03T02:44:09.586Z,12.00
2018-12-03T02:46:37.012Z,12.00
2018-12-03T02:49:05.021Z,12.00
2018-12-03T02:51:32.449Z,12.00
2018-12-03T02:53:59.880Z,11.90
2018-12-03T02:56:27.339Z,11.90
2018-12-03T02:58:54.769Z,11.90
2018-12-03T03:01:22.194Z,11.90
2018-12-03T03:03:49.641Z,12.00
2018-12-03T03:06:17.084Z,11.90
2018-12-03T03:08:44.530Z,11.90
2018-12-03T03:11:11.963Z,11.90
2018-12-03T03:13:39.402Z,12.10
2018-12-03T03:16:06.884Z,11.90
2018-12-03T03:18:34.350Z,11.90
2018-12-03T03:21:01.765Z,11.90
2018-12-03T03:23:29.200Z,11.80
2018-12-03T03:25:56.641Z,11.80
2018-12-03T03:28:24.085Z,11.80
2018-12-03T03:30:51.546Z,11.80
2018-12-03T03:33:18.970Z,11.80
2018-12-03T03:35:46.413Z,11.80
2018-12-03T03:38:13.830Z,11.80
2018-12-03T03:40:41.286Z,11.90
2018-12-03T03:43:08.730Z,11.80
2018-12-03T03:45:36.168Z,11.80
2018-12-03T03:48:03.864Z,11.80
2018-12-03T03:50:31.383Z,11.80
2018-12-03T03:52:58.806Z,11.80
2018-12-03T03:55:26.260Z,11.80
2018-12-03T03:57:53.684Z,11.80
2018-12-03T04:00:21.192Z,11.80
2018-12-03T04:02:48.681Z,11.70
2018-12-03T04:05:16.150Z,11.70
2018-12-03T04:07:44.671Z,11.70
2018-12-03T04:10:12.849Z,11.70
2018-12-03T04:12:41.002Z,11.70
2018-12-03T04:15:11.456Z,11.60
2018-12-03T04:17:38.893Z,11.60
2018-12-03T04:20:10.753Z,11.50
2018-12-03T04:22:38.201Z,11.40
2018-12-03T04:25:06.918Z,11.50
2018-12-03T04:27:34.329Z,11.40
2018-12-03T04:30:01.803Z,11.50
2018-12-03T04:32:29.238Z,11.50
2018-12-03T04:34:56.680Z,11.50
2018-12-03T04:37:24.113Z,11.50
2018-12-03T04:39:51.543Z,11.40
2018-12-03T04:42:18.962Z,11.40
2018-12-03T04:44:46.401Z,11.30
2018-12-03T04:47:13.835Z,11.40
2018-12-03T04:49:41.274Z,11.30
2018-12-03T04:52:08.711Z,11.20
2018-12-03T04:54:36.140Z,11.20
2018-12-03T04:57:03.604Z,11.20
2018-12-03T04:59:31.125Z,11.10
2018-12-03T05:01:58.560Z,11.20
2018-12-03T05:04:25.995Z,11.20
2018-12-03T05:06:53.416Z,11.10
2018-12-03T05:09:20.858Z,11.10
2018-12-03T05:11:48.281Z,11.10
2018-12-03T05:14:15.712Z,11.10
2018-12-03T05:16:43.135Z,11.10
2018-12-03T05:19:10.608Z,11.00
2018-12-03T05:21:38.067Z,11.10
2018-12-03T05:24:05.510Z,11.10
2018-12-03T05:26:32.929Z,11.10
2018-12-03T05:29:00.339Z,11.10
2018-12-03T05:31:27.776Z,11.20
2018-12-03T05:33:55.208Z,11.30
2018-12-03T05:36:22.642Z,11.30
2018-12-03T05:38:50.073Z,11.30
2018-12-03T05:41:17.512Z,11.40
2018-12-03T05:43:44.937Z,11.30
2018-12-03T05:46:12.401Z,11.40
2018-12-03T05:48:39.807Z,11.60
2018-12-03T05:51:07.260Z,11.60
2018-12-03T05:53:34.688Z,11.70
2018-12-03T05:56:02.154Z,11.70
2018-12-03T05:58:29.576Z,11.80
2018-12-03T06:00:57.065Z,11.90
2018-12-03T06:03:24.516Z,11.90
2018-12-03T06:05:51.953Z,11.80
2018-12-03T06:08:19.392Z,11.90
2018-12-03T06:10:46.815Z,11.90
2018-12-03T06:13:14.236Z,11.90
2018-12-03T06:15:41.691Z,12.00
2018-12-03T06:18:09.104Z,11.90
2018-12-03T06:20:36.563Z,11.90
2018-12-03T06:23:04.044Z,11.90
2018-12-03T06:25:31.484Z,12.00
2018-12-03T06:27:58.911Z,12.00
2018-12-03T06:30:27.135Z,12.00
2018-12-03T06:32:54.591Z,12.00
2018-12-03T06:35:22.050Z,12.00
2018-12-03T06:37:49.953Z,12.00
2018-12-03T06:40:19.661Z,12.00
2018-12-03T06:42:47.110Z,11.90
2018-12-03T06:45:19.729Z,11.90
2018-12-03T06:47:59.273Z,11.90
2018-12-03T06:50:26.753Z,11.90
2018-12-03T06:52:54.179Z,11.90
2018-12-03T06:55:21.657Z,11.90
2018-12-03T06:57:49.173Z,11.90
2018-12-03T07:00:17.779Z,11.90
2018-12-03T07:02:45.311Z,11.90
2018-12-03T07:05:12.846Z,11.80
2018-12-03T07:07:41.044Z,11.90
2018-12-03T07:10:11.632Z,11.80
2018-12-03T07:12:39.109Z,11.90
2018-12-03T07:15:08.630Z,11.90
2018-12-03T07:17:36.127Z,12.00
2018-12-03T07:20:06.716Z,12.00
2018-12-03T07:22:34.174Z,12.00
2018-12-03T07:25:01.628Z,12.00
2018-12-03T07:27:29.086Z,11.90
2018-12-03T07:29:56.541Z,12.00
2018-12-03T07:32:24.034Z,12.00
2018-12-03T07:34:51.478Z,12.00
2018-12-03T07:37:18.953Z,12.00
2018-12-03T07:39:46.395Z,12.10
2018-12-03T07:42:13.860Z,12.00
2018-12-03T07:44:41.303Z,12.00
2018-12-03T07:47:08.787Z,11.90
2018-12-03T07:49:36.243Z,12.00
2018-12-03T07:52:03.726Z,12.00
2018-12-03T07:54:31.172Z,12.10
2018-12-03T07:56:58.591Z,12.00
2018-12-03T07:59:26.052Z,12.10
2018-12-03T08:01:53.676Z,12.10
2018-12-03T08:04:21.103Z,12.10
2018-12-03T08:06:48.567Z,12.00
2018-12-03T08:09:16.044Z,12.00
2018-12-03T08:11:43.545Z,12.10
2018-12-03T08:14:10.982Z,12.10
2018-12-03T08:16:39.216Z,12.10
2018-12-03T08:19:06.244Z,12.20
2018-12-03T08:21:33.757Z,12.20
2018-12-03T08:24:03.535Z,12.20
2018-12-03T08:26:31.033Z,12.30
2018-12-03T08:28:58.487Z,12.30
2018-12-03T08:31:26.048Z,12.40
2018-12-03T08:33:53.588Z,12.30
2018-12-03T08:36:21.025Z,12.30
2018-12-03T08:38:48.510Z,12.30
2018-12-03T08:41:15.947Z,12.10
2018-12-03T08:43:43.518Z,12.00
2018-12-03T08:46:11.006Z,12.00
2018-12-03T08:48:39.702Z,11.90
2018-12-03T08:51:07.826Z,11.90
2018-12-03T08:53:35.386Z,11.90
2018-12-03T08:56:02.868Z,11.80
2018-12-03T08:58:30.419Z,11.70
2018-12-03T09:00:57.899Z,11.60
2018-12-03T09:03:27.298Z,11.60
2018-12-03T09:05:56.304Z,11.70
2018-12-03T09:08:23.004Z,11.70
2018-12-03T09:10:50.537Z,11.60
2018-12-03T09:13:19.763Z,11.50
2018-12-03T09:16:00.559Z,11.50
2018-12-03T09:18:33.210Z,11.50
2018-12-03T09:21:00.828Z,11.50
2018-12-03T09:24:00.363Z,11.50
2018-12-03T09:26:27.765Z,11.40
2018-12-03T09:28:55.200Z,11.50
2018-12-03T09:31:23.069Z,11.30
2018-12-03T09:33:56.144Z,11.30
2018-12-03T09:36:24.460Z,11.20
2018-12-03T09:39:15.524Z,11.20
2018-12-03T09:41:43.567Z,11.20
2018-12-03T09:44:11.049Z,11.10
2018-12-03T09:46:38.457Z,11.10
2018-12-03T09:49:06.788Z,11.10
2018-12-03T09:51:35.963Z,11.10
2018-12-03T09:54:06.512Z,11.20
2018-12-03T09:56:41.527Z,11.20
2018-12-03T09:59:11.252Z,11.20
2018-12-03T10:01:38.646Z,11.20
2018-12-03T10:04:09.648Z,11.20
2018-12-03T10:06:37.040Z,11.10
2018-12-03T10:09:08.651Z,11.20
2018-12-03T10:11:36.262Z,11.20
2018-12-03T10:14:03.867Z,11.20
2018-12-03T10:16:31.273Z,11.20
2018-12-03T10:19:00.451Z,11.20
2018-12-03T10:21:28.039Z,11.20
2018-12-03T10:23:55.549Z,11.20
2018-12-03T10:26:22.944Z,11.10
2018-12-03T10:28:50.461Z,11.10
2018-12-03T10:31:17.857Z,11.20
2018-12-03T10:33:45.377Z,11.20
2018-12-03T10:36:12.792Z,11.20
2018-12-03T10:38:42.438Z,11.10
2018-12-03T10:41:14.877Z,11.10
2018-12-03T10:43:42.365Z,11.20
2018-12-03T10:46:10.500Z,11.30
2018-12-03T10:48:38.001Z,11.20
2018-12-03T10:51:10.751Z,11.20
2018-12-03T10:53:38.235Z,11.10
2018-12-03T10:56:05.640Z,11.10
2018-12-03T10:58:35.191Z,11.20
2018-12-03T11:01:12.573Z,11.20
2018-12-03T11:03:45.809Z,11.20
2018-12-03T11:06:19.744Z,11.10
2018-12-03T11:08:47.336Z,11.10
2018-12-03T11:11:15.028Z,11.00
2018-12-03T11:13:42.904Z,11.00
2018-12-03T11:16:17.151Z,11.00
2018-12-03T11:18:48.789Z,11.00
2018-12-03T11:21:16.202Z,11.00
2018-12-03T11:23:43.640Z,11.10
2018-12-03T11:26:11.042Z,11.10
2018-12-03T11:28:41.109Z,11.10
2018-12-03T11:31:15.932Z,11.00
2018-12-03T11:33:43.337Z,11.10
2018-12-03T11:36:10.921Z,11.10
2018-12-03T11:38:47.304Z,11.10
2018-12-03T11:41:14.865Z,11.10
2018-12-03T11:43:42.268Z,11.10
2018-12-03T11:46:09.949Z,11.10
2018-12-03T11:48:37.379Z,11.20
2018-12-03T11:51:05.495Z,11.20
2018-12-03T11:53:32.903Z,11.30
2018-12-03T11:56:00.361Z,11.20
2018-12-03T11:58:27.760Z,11.20
2018-12-03T12:00:55.397Z,11.20
2018-12-03T12:03:22.801Z,11.30
2018-12-03T12:05:50.350Z,11.30
2018-12-03T12:08:17.744Z,11.20
2018-12-03T12:10:45.185Z,11.20
2018-12-03T12:13:12.577Z,11.30
2018-12-03T12:15:40.000Z,11.30
2018-12-03T12:18:07.520Z,11.30
2018-12-03T12:20:34.948Z,11.40
2018-12-03T12:23:02.353Z,11.50
2018-12-03T12:25:29.787Z,11.60
2018-12-03T12:27:58.177Z,11.60
2018-12-03T12:30:25.614Z,11.70
2018-12-03T12:32:53.016Z,11.80
2018-12-03T12:35:20.447Z,11.80
2018-12-03T12:37:48.050Z,11.90
2018-12-03T12:40:15.484Z,11.90
2018-12-03T12:42:43.632Z,11.70
2018-12-03T12:45:16.876Z,11.30
2018-12-03T12:47:44.440Z,10.90
2018-12-03T12:50:14.884Z,10.60
2018-12-03T12:52:42.339Z,10.50
2018-12-03T12:55:09.971Z,10.20
2018-12-03T12:57:37.405Z,10.20
2018-12-03T13:00:12.334Z,10.10
2018-12-03T13:02:39.809Z,10.00
2018-12-03T13:05:07.449Z,10.00
2018-12-03T13:07:34.896Z,9.90
2018-12-03T13:10:02.664Z,9.90
2018-12-03T13:12:30.168Z,9.90
2018-12-03T13:14:57.594Z,9.70
2018-12-03T13:17:25.022Z,9.60
2018-12-03T13:19:52.424Z,9.60
2018-12-03T13:22:30.306Z,9.60
2018-12-03T13:24:57.028Z,9.70
2018-12-03T13:27:24.808Z,9.80
2018-12-03T13:29:52.225Z,9.80
2018-12-03T13:32:19.635Z,9.80
2018-12-03T13:34:47.066Z,9.90
2018-12-03T13:37:14.453Z,10.00
2018-12-03T13:39:41.897Z,9.90
2018-12-03T13:42:09.424Z,9.90
2018-12-03T13:44:36.847Z,10.00
2018-12-03T13:47:04.647Z,9.90
2018-12-03T13:49:32.082Z,9.90
2018-12-03T13:51:59.484Z,9.90
2018-12-03T13:54:26.921Z,9.90
2018-12-03T13:56:54.327Z,9.90
2018-12-03T13:59:21.753Z,9.80
2018-12-03T14:01:49.265Z,9.80
2018-12-03T14:04:16.700Z,9.70
2018-12-03T14:07:58.008Z,9.60
2018-12-03T14:11:30.632Z,9.60
2018-12-03T14:14:11.934Z,9.60
2018-12-03T14:16:45.738Z,9.60
2018-12-03T14:19:17.060Z,9.70
2018-12-03T14:21:48.687Z,9.70
2018-12-03T14:24:20.034Z,9.70
2018-12-03T14:26:47.596Z,9.70
2018-12-03T14:29:15.025Z,9.70
2018-12-03T14:31:42.680Z,9.70
2018-12-03T14:34:27.148Z,9.70
2018-12-03T14:36:54.825Z,9.70
2018-12-03T14:39:22.247Z,9.60
2018-12-03T14:41:50.260Z,9.70
2018-12-03T14:44:17.849Z,9.80
2018-12-03T14:46:45.249Z,9.80
2018-12-03T14:49:12.696Z,9.80
2018-12-03T14:51:40.215Z,9.80
2018-12-03T14:54:07.737Z,9.80
2018-12-03T14:56:35.331Z,9.80
2018-12-03T14:59:02.857Z,9.80
2018-12-03T15:01:30.292Z,9.80
2018-12-03T15:03:57.812Z,10.00
2018-12-03T15:06:25.257Z,10.20
2018-12-03T15:08:52.636Z,10.30
2018-12-03T15:11:20.081Z,10.40
2018-12-03T15:13:47.455Z,10.40
2018-12-03T15:16:14.888Z,10.50
2018-12-03T15:18:42.400Z,10.50
2018-12-03T15:21:09.804Z,10.50
2018-12-03T15:23:37.177Z,10.60
2018-12-03T15:26:04.590Z,10.80
2018-12-03T15:28:31.962Z,11.00
2018-12-03T15:30:59.408Z,11.10
2018-12-03T15:33:26.792Z,11.20
2018-12-03T15:35:54.212Z,11.20
2018-12-03T15:38:21.596Z,11.30
2018-12-03T15:40:49.049Z,11.30
2018-12-03T15:43:16.488Z,11.20
2018-12-03T15:45:43.954Z,11.20
2018-12-03T15:48:11.392Z,11.20
2018-12-03T15:50:38.856Z,11.20
2018-12-03T15:53:06.344Z,11.10
2018-12-03T15:55:33.916Z,11.20
2018-12-03T15:58:01.564Z,11.20
2018-12-03T16:00:29.049Z,11.30
2018-12-03T16:02:56.762Z,11.30
2018-12-03T16:05:25.736Z,11.30
2018-12-03T16:07:53.272Z,11.30
2018-12-03T16:10:20.759Z,11.40
2018-12-03T16:12:48.707Z,11.30
2018-12-03T16:15:16.176Z,11.30
2018-12-03T16:17:43.645Z,11.30
2018-12-03T16:20:11.632Z,11.40
2018-12-03T16:22:39.188Z,11.50
2018-12-03T16:25:07.782Z,11.50
2018-12-03T16:27:35.249Z,11.50
2018-12-03T16:30:05.581Z,11.40
2018-12-03T16:32:33.869Z,11.40
2018-12-03T16:35:01.255Z,11.40
2018-12-03T16:37:35.925Z,11.50
2018-12-03T16:40:05.189Z,11.40
2018-12-03T16:42:32.802Z,11.50
2018-12-03T16:45:02.015Z,11.50
2018-12-03T16:47:29.661Z,11.50
2018-12-03T16:50:05.061Z,11.50
2018-12-03T16:52:32.988Z,11.50
2018-12-03T16:55:00.423Z,11.60
2018-12-03T16:57:27.907Z,11.60
2018-12-03T16:59:55.379Z,11.70
2018-12-03T17:02:22.931Z,11.60
2018-12-03T17:04:50.328Z,11.60
2018-12-03T17:07:18.266Z,11.60
2018-12-03T17:09:45.802Z,11.60
2018-12-03T17:12:13.495Z,11.60
2018-12-03T17:14:41.009Z,11.60
2018-12-03T17:17:08.513Z,11.60
2018-12-03T17:19:36.377Z,11.60
2018-12-03T17:22:18.808Z,11.50
2018-12-03T17:24:47.369Z,11.60
2018-12-03T17:27:14.845Z,11.60
2018-12-03T17:29:42.237Z,11.60
2018-12-03T17:32:09.678Z,11.50
2018-12-03T17:34:37.069Z,11.30
2018-12-03T17:37:04.879Z,11.20
2018-12-03T17:39:32.270Z,11.10
2018-12-03T17:41:59.794Z,11.00
2018-12-03T17:44:27.199Z,10.90
2018-12-03T17:46:54.711Z,10.80
2018-12-03T17:49:22.139Z,10.80
2018-12-03T17:51:49.624Z,10.90
2018-12-03T17:54:17.019Z,10.80
2018-12-03T17:56:44.640Z,10.70
2018-12-03T17:59:12.024Z,10.70
2018-12-03T18:01:39.586Z,10.70
2018-12-03T18:04:09.004Z,10.70
2018-12-03T18:06:36.495Z,10.70
2018-12-03T18:09:11.840Z,10.60
2018-12-03T18:11:39.382Z,10.60
2018-12-03T18:14:06.901Z,10.60
2018-12-03T18:16:34.545Z,10.60
2018-12-03T18:19:01.984Z,10.50
2018-12-03T18:21:29.444Z,10.60
2018-12-03T18:23:56.829Z,10.50
2018-12-03T18:26:31.000Z,10.50
2018-12-03T18:28:58.402Z,10.40
2018-12-03T18:31:26.002Z,10.50
2018-12-03T18:33:53.444Z,10.50
2018-12-03T18:36:21.031Z,10.50
2018-12-03T18:38:48.435Z,10.50
2018-12-03T18:41:16.037Z,10.50
2018-12-03T18:43:43.420Z,10.40
2018-12-03T18:46:10.960Z,10.30
2018-12-03T18:48:38.389Z,10.30
2018-12-03T18:51:06.097Z,10.20
2018-12-03T18:53:33.562Z,10.20
2018-12-03T18:56:00.953Z,10.10
2018-12-03T18:59:04.506Z,10.10
2018-12-03T19:01:31.954Z,10.20
2018-12-03T19:03:59.363Z,10.20
2018-12-03T19:06:27.285Z,10.20
2018-12-03T19:08:54.891Z,10.30
2018-12-03T19:11:22.916Z,10.20
2018-12-03T19:13:50.284Z,10.30
2018-12-03T19:16:17.812Z,10.20
2018-12-03T19:18:45.191Z,10.30
2018-12-03T19:21:12.597Z,10.30
2018-12-03T19:23:40.209Z,10.30
2018-12-03T19:26:07.593Z,10.20
2018-12-03T19:28:35.107Z,10.30
2018-12-03T19:31:02.508Z,10.30
2018-12-03T19:33:30.021Z,10.40
2018-12-03T19:35:57.408Z,10.40
2018-12-03T19:38:24.920Z,10.40
2018-12-03T19:43:26.500Z,10.20
2018-12-03T19:45:54.259Z,10.10
2018-12-03T19:48:21.725Z,10.20
2018-12-03T19:50:49.306Z,10.20
2018-12-03T19:53:16.727Z,10.20
2018-12-03T19:55:45.467Z,10.20
2018-12-03T19:58:16.051Z,10.20
2018-12-03T20:00:44.686Z,10.20
2018-12-03T20:03:12.317Z,10.20
2018-12-03T20:05:39.700Z,10.30
2018-12-03T20:08:07.163Z,10.30
2018-12-03T20:10:35.352Z,10.30
2018-12-03T20:13:02.936Z,10.40
2018-12-03T20:15:30.436Z,10.40
2018-12-03T20:17:57.957Z,10.30
2018-12-03T20:21:00.598Z,10.40
2018-12-03T20:23:33.928Z,10.40
2018-12-03T20:26:06.657Z,10.30
2018-12-03T20:28:56.593Z,10.30
2018-12-03T20:32:38.240Z,10.20
2018-12-03T20:36:15.901Z,10.30
2018-12-03T20:38:52.058Z,10.30
2018-12-03T20:41:28.898Z,10.30
2018-12-03T20:44:00.020Z,10.40
2018-12-03T20:46:34.642Z,10.40
2018-12-03T20:49:29.201Z,10.40
2018-12-03T20:52:03.504Z,10.40
2018-12-03T20:54:30.902Z,10.40
2018-12-03T20:56:58.420Z,10.40
2018-12-03T20:59:25.816Z,10.30
2018-12-03T21:01:53.331Z,10.40
2018-12-03T21:04:22.057Z,10.40
2018-12-03T21:06:49.847Z,10.40
2018-12-03T21:09:17.275Z,10.40
2018-12-03T21:11:44.659Z,10.40
2018-12-03T21:14:12.148Z,10.30
2018-12-03T21:16:39.583Z,10.20
2018-12-03T21:19:07.068Z,10.20
2018-12-03T21:21:34.505Z,10.10
2018-12-03T21:24:02.488Z,10.10
2018-12-03T21:26:29.898Z,10.10
2018-12-03T21:28:57.916Z,10.10
2018-12-03T21:31:25.587Z,10.10
2018-12-03T21:33:53.284Z,10.10
2018-12-03T21:36:20.693Z,10.10
2018-12-03T21:38:48.243Z,10.00
2018-12-03T21:41:15.745Z,10.10
2018-12-03T21:43:43.256Z,10.10
2018-12-03T21:46:10.709Z,10.10
2018-12-03T21:48:38.228Z,10.10
2018-12-03T21:51:05.613Z,10.10
2018-12-03T21:53:33.038Z,10.00
2018-12-03T21:56:00.453Z,10.00
2018-12-03T21:58:27.988Z,10.00
2018-12-03T22:00:55.387Z,9.90
2018-12-03T22:03:22.797Z,9.90
2018-12-03T22:05:50.196Z,9.90
2018-12-03T22:08:17.634Z,9.90
2018-12-03T22:10:45.033Z,9.90
2018-12-03T22:13:12.445Z,9.90
2018-12-03T22:15:39.828Z,9.90
2018-12-03T22:18:07.235Z,9.80
2018-12-03T22:20:34.721Z,9.90
2018-12-03T22:23:02.133Z,9.90
2018-12-03T22:25:29.516Z,9.90
2018-12-03T22:27:56.925Z,9.90
2018-12-03T22:30:24.320Z,9.90
2018-12-03T22:32:51.789Z,9.90
2018-12-03T22:35:25.896Z,9.90
2018-12-03T22:37:53.373Z,9.90
2018-12-03T22:40:20.788Z,9.90
2018-12-03T22:42:48.308Z,9.90
2018-12-03T22:45:15.766Z,9.80
2018-12-03T22:47:43.505Z,9.90
2018-12-03T22:50:10.969Z,9.90
2018-12-03T22:52:38.349Z,9.80
2018-12-03T22:55:05.896Z,9.80
2018-12-03T22:57:33.289Z,9.80
2018-12-03T23:00:00.693Z,9.80
2018-12-03T23:02:28.369Z,9.90
2018-12-03T23:04:55.776Z,9.80
2018-12-03T23:07:23.164Z,9.80
2018-12-03T23:09:50.592Z,9.80
2018-12-03T23:12:17.994Z,9.80
2018-12-03T23:14:45.512Z,9.70
2018-12-03T23:17:12.912Z,9.80
2018-12-03T23:19:40.347Z,9.70
2018-12-03T23:22:07.731Z,9.80
2018-12-03T23:24:35.127Z,9.70
2018-12-03T23:27:02.532Z,9.70
2018-12-03T23:29:29.955Z,9.70
2018-12-03T23:31:57.336Z,9.70
2018-12-03T23:34:24.744Z,9.70
2018-12-03T23:36:52.221Z,9.70
2018-12-03T23:39:19.643Z,9.70
2018-12-03T23:41:47.027Z,9.70
2018-12-03T23:44:14.509Z,9.70
2018-12-03T23:46:41.921Z,9.70
2018-12-03T23:49:09.318Z,9.60
2018-12-03T23:51:36.728Z,9.60
2018-12-03T23:54:04.249Z,9.60
2018-12-03T23:56:31.648Z,9.60
2018-12-03T23:58:59.061Z,9.60
